Terminal Aerodrome Forecast
Issued by NWS

Home | Current Version | Previous Version | Text Only | Print | Product List | Glossary On
Versions: 1 2 3 4 5 6 7 8 9 10 11 12 13 14
000
FTUS43 KBIS 111403 AAA
TAFMOT
TAF AMD
KMOT 111403Z 1114/1212 35008KT P6SM BKN060
     FM111800 30008KT P6SM SCT045
     FM112200 26006KT P6SM SCT040
     FM120500 25008KT P6SM BKN035=

USA.gov is the U.S. government's official web portal to all federal, state and local government web resources and services.